sensor_id;sensor_type;location;lat;lon;timestamp;P1;durP1;ratioP1;P2;durP2;ratioP2
17488;SDS011;8861;52.644;4.734;2024-02-23T00:00:22;30.57;;;5.80;;
17488;SDS011;8861;52.644;4.734;2024-02-23T00:02:50;29.00;;;5.80;;
17488;SDS011;8861;52.644;4.734;2024-02-23T00:05:19;26.93;;;5.80;;
17488;SDS011;8861;52.644;4.734;2024-02-23T00:07:46;29.23;;;5.30;;
17488;SDS011;8861;52.644;4.734;2024-02-23T00:10:12;34.97;;;6.40;;
17488;SDS011;8861;52.644;4.734;2024-02-23T00:12:40;26.50;;;6.20;;
17488;SDS011;8861;52.644;4.734;2024-02-23T00:15:09;22.13;;;5.77;;
17488;SDS011;8861;52.644;4.734;2024-02-23T00:17:36;30.40;;;6.37;;
17488;SDS011;8861;52.644;4.734;2024-02-23T00:20:08;26.93;;;5.23;;
17488;SDS011;8861;52.644;4.734;2024-02-23T00:22:36;28.63;;;5.77;;
17488;SDS011;8861;52.644;4.734;2024-02-23T00:25:04;21.87;;;6.23;;
17488;SDS011;8861;52.644;4.734;2024-02-23T00:27:32;25.83;;;5.20;;
17488;SDS011;8861;52.644;4.734;2024-02-23T00:29:59;24.50;;;5.47;;
17488;SDS011;8861;52.644;4.734;2024-02-23T00:32:26;27.27;;;5.20;;
17488;SDS011;8861;52.644;4.734;2024-02-23T00:34:53;19.43;;;4.23;;
17488;SDS011;8861;52.644;4.734;2024-02-23T00:37:22;24.03;;;4.77;;
17488;SDS011;8861;52.644;4.734;2024-02-23T00:39:49;13.13;;;4.23;;
17488;SDS011;8861;52.644;4.734;2024-02-23T00:42:16;19.23;;;4.10;;
17488;SDS011;8861;52.644;4.734;2024-02-23T00:44:43;20.37;;;4.17;;
17488;SDS011;8861;52.644;4.734;2024-02-23T00:47:10;22.10;;;4.07;;
17488;SDS011;8861;52.644;4.734;2024-02-23T00:49:37;20.03;;;4.83;;
17488;SDS011;8861;52.644;4.734;2024-02-23T00:52:04;17.73;;;4.03;;
17488;SDS011;8861;52.644;4.734;2024-02-23T00:54:33;16.53;;;4.20;;
17488;SDS011;8861;52.644;4.734;2024-02-23T00:57:00;19.30;;;4.23;;
17488;SDS011;8861;52.644;4.734;2024-02-23T00:59:27;18.43;;;3.97;;
17488;SDS011;8861;52.644;4.734;2024-02-23T01:01:54;20.90;;;4.13;;
17488;SDS011;8861;52.644;4.734;2024-02-23T01:04:21;18.90;;;4.00;;
17488;SDS011;8861;52.644;4.734;2024-02-23T01:06:48;21.60;;;3.93;;
17488;SDS011;8861;52.644;4.734;2024-02-23T01:09:15;20.13;;;3.73;;
17488;SDS011;8861;52.644;4.734;2024-02-23T01:11:46;21.03;;;3.97;;
17488;SDS011;8861;52.644;4.734;2024-02-23T01:14:14;14.40;;;2.90;;
17488;SDS011;8861;52.644;4.734;2024-02-23T01:16:40;20.57;;;3.87;;
17488;SDS011;8861;52.644;4.734;2024-02-23T01:19:08;17.67;;;3.60;;
17488;SDS011;8861;52.644;4.734;2024-02-23T01:21:35;24.30;;;3.60;;
17488;SDS011;8861;52.644;4.734;2024-02-23T01:24:02;14.50;;;3.60;;
17488;SDS011;8861;52.644;4.734;2024-02-23T01:26:30;20.37;;;3.50;;
17488;SDS011;8861;52.644;4.734;2024-02-23T01:28:58;16.60;;;3.57;;
17488;SDS011;8861;52.644;4.734;2024-02-23T01:31:25;18.37;;;3.50;;
17488;SDS011;8861;52.644;4.734;2024-02-23T01:33:52;19.63;;;4.03;;
17488;SDS011;8861;52.644;4.734;2024-02-23T01:36:19;19.47;;;3.43;;
17488;SDS011;8861;52.644;4.734;2024-02-23T01:38:46;16.77;;;3.00;;
17488;SDS011;8861;52.644;4.734;2024-02-23T01:41:13;14.63;;;3.10;;
17488;SDS011;8861;52.644;4.734;2024-02-23T01:43:40;13.70;;;2.93;;
17488;SDS011;8861;52.644;4.734;2024-02-23T01:46:08;13.37;;;3.10;;
17488;SDS011;8861;52.644;4.734;2024-02-23T01:48:35;18.30;;;3.13;;
17488;SDS011;8861;52.644;4.734;2024-02-23T01:51:03;15.23;;;3.03;;
17488;SDS011;8861;52.644;4.734;2024-02-23T01:53:30;22.10;;;2.93;;
17488;SDS011;8861;52.644;4.734;2024-02-23T01:55:58;19.60;;;3.27;;
17488;SDS011;8861;52.644;4.734;2024-02-23T01:58:27;18.10;;;3.20;;
17488;SDS011;8861;52.644;4.734;2024-02-23T02:00:54;24.37;;;3.40;;
17488;SDS011;8861;52.644;4.734;2024-02-23T02:03:23;16.40;;;3.27;;
17488;SDS011;8861;52.644;4.734;2024-02-23T02:05:50;18.07;;;2.93;;
17488;SDS011;8861;52.644;4.734;2024-02-23T02:08:18;11.40;;;2.80;;
17488;SDS011;8861;52.644;4.734;2024-02-23T02:10:45;15.23;;;2.77;;
17488;SDS011;8861;52.644;4.734;2024-02-23T02:13:12;11.23;;;2.93;;
17488;SDS011;8861;52.644;4.734;2024-02-23T02:15:39;13.87;;;3.23;;
17488;SDS011;8861;52.644;4.734;2024-02-23T02:18:08;15.27;;;3.10;;
17488;SDS011;8861;52.644;4.734;2024-02-23T02:20:37;14.30;;;2.93;;
17488;SDS011;8861;52.644;4.734;2024-02-23T02:23:16;23.33;;;3.67;;
17488;SDS011;8861;52.644;4.734;2024-02-23T02:25:43;12.43;;;2.60;;
17488;SDS011;8861;52.644;4.734;2024-02-23T02:28:10;14.33;;;2.80;;
17488;SDS011;8861;52.644;4.734;2024-02-23T02:30:37;14.57;;;2.90;;
17488;SDS011;8861;52.644;4.734;2024-02-23T02:33:04;16.97;;;3.00;;
17488;SDS011;8861;52.644;4.734;2024-02-23T02:35:31;23.67;;;3.47;;
17488;SDS011;8861;52.644;4.734;2024-02-23T02:37:59;12.87;;;2.90;;
17488;SDS011;8861;52.644;4.734;2024-02-23T02:40:26;14.10;;;3.10;;
17488;SDS011;8861;52.644;4.734;2024-02-23T02:42:53;13.03;;;2.83;;
17488;SDS011;8861;52.644;4.734;2024-02-23T02:45:21;18.70;;;3.10;;
17488;SDS011;8861;52.644;4.734;2024-02-23T02:47:48;19.90;;;3.57;;
17488;SDS011;8861;52.644;4.734;2024-02-23T02:50:15;15.13;;;3.10;;
17488;SDS011;8861;52.644;4.734;2024-02-23T02:52:42;13.23;;;2.90;;
17488;SDS011;8861;52.644;4.734;2024-02-23T02:55:11;17.17;;;3.20;;
17488;SDS011;8861;52.644;4.734;2024-02-23T02:57:38;10.20;;;2.73;;
17488;SDS011;8861;52.644;4.734;2024-02-23T03:00:05;18.03;;;3.27;;
17488;SDS011;8861;52.644;4.734;2024-02-23T03:02:35;16.83;;;3.13;;
17488;SDS011;8861;52.644;4.734;2024-02-23T03:05:03;15.43;;;3.17;;
17488;SDS011;8861;52.644;4.734;2024-02-23T03:07:30;14.33;;;3.30;;
17488;SDS011;8861;52.644;4.734;2024-02-23T03:09:57;17.47;;;3.50;;
17488;SDS011;8861;52.644;4.734;2024-02-23T03:12:26;16.33;;;3.20;;
17488;SDS011;8861;52.644;4.734;2024-02-23T03:14:53;18.87;;;3.03;;
17488;SDS011;8861;52.644;4.734;2024-02-23T03:17:21;12.97;;;2.80;;
17488;SDS011;8861;52.644;4.734;2024-02-23T03:19:48;18.47;;;3.50;;
17488;SDS011;8861;52.644;4.734;2024-02-23T03:22:15;14.97;;;2.90;;
17488;SDS011;8861;52.644;4.734;2024-02-23T03:24:42;16.47;;;3.57;;
17488;SDS011;8861;52.644;4.734;2024-02-23T03:27:09;21.27;;;3.73;;
17488;SDS011;8861;52.644;4.734;2024-02-23T03:29:38;17.27;;;3.47;;
17488;SDS011;8861;52.644;4.734;2024-02-23T03:32:05;14.77;;;3.07;;
17488;SDS011;8861;52.644;4.734;2024-02-23T03:34:33;11.73;;;3.03;;
17488;SDS011;8861;52.644;4.734;2024-02-23T03:37:01;19.73;;;3.30;;
17488;SDS011;8861;52.644;4.734;2024-02-23T03:39:28;13.40;;;3.07;;
17488;SDS011;8861;52.644;4.734;2024-02-23T03:41:57;21.63;;;3.47;;
17488;SDS011;8861;52.644;4.734;2024-02-23T03:44:24;16.07;;;3.30;;
17488;SDS011;8861;52.644;4.734;2024-02-23T03:46:52;16.73;;;3.10;;
17488;SDS011;8861;52.644;4.734;2024-02-23T03:49:19;18.17;;;3.80;;
17488;SDS011;8861;52.644;4.734;2024-02-23T03:51:47;18.87;;;4.07;;
17488;SDS011;8861;52.644;4.734;2024-02-23T03:54:14;17.97;;;3.33;;
17488;SDS011;8861;52.644;4.734;2024-02-23T03:56:41;17.17;;;3.20;;
17488;SDS011;8861;52.644;4.734;2024-02-23T03:59:08;14.77;;;3.33;;
17488;SDS011;8861;52.644;4.734;2024-02-23T04:01:35;16.17;;;3.10;;
17488;SDS011;8861;52.644;4.734;2024-02-23T04:04:04;18.13;;;3.20;;
17488;SDS011;8861;52.644;4.734;2024-02-23T04:06:32;18.33;;;3.23;;
17488;SDS011;8861;52.644;4.734;2024-02-23T04:09:00;15.40;;;3.00;;
17488;SDS011;8861;52.644;4.734;2024-02-23T04:11:30;11.30;;;2.40;;
17488;SDS011;8861;52.644;4.734;2024-02-23T04:13:56;12.30;;;2.60;;
17488;SDS011;8861;52.644;4.734;2024-02-23T04:16:24;15.87;;;2.60;;
17488;SDS011;8861;52.644;4.734;2024-02-23T04:18:51;13.50;;;2.80;;
17488;SDS011;8861;52.644;4.734;2024-02-23T04:21:20;12.93;;;2.13;;
17488;SDS011;8861;52.644;4.734;2024-02-23T04:23:47;12.17;;;2.83;;
17488;SDS011;8861;52.644;4.734;2024-02-23T04:26:14;16.23;;;2.77;;
17488;SDS011;8861;52.644;4.734;2024-02-23T04:28:41;10.27;;;2.80;;
17488;SDS011;8861;52.644;4.734;2024-02-23T04:31:08;13.03;;;2.70;;
17488;SDS011;8861;52.644;4.734;2024-02-23T04:33:35;12.87;;;2.60;;
17488;SDS011;8861;52.644;4.734;2024-02-23T04:36:03;9.27;;;2.37;;
17488;SDS011;8861;52.644;4.734;2024-02-23T04:38:32;12.87;;;3.00;;
17488;SDS011;8861;52.644;4.734;2024-02-23T04:41:02;13.13;;;2.40;;
17488;SDS011;8861;52.644;4.734;2024-02-23T04:43:30;11.53;;;2.90;;
17488;SDS011;8861;52.644;4.734;2024-02-23T04:45:57;19.17;;;2.90;;
17488;SDS011;8861;52.644;4.734;2024-02-23T04:48:24;16.27;;;2.97;;
17488;SDS011;8861;52.644;4.734;2024-02-23T04:50:51;18.43;;;3.50;;
17488;SDS011;8861;52.644;4.734;2024-02-23T04:53:18;12.80;;;2.80;;
17488;SDS011;8861;52.644;4.734;2024-02-23T04:55:47;15.33;;;3.10;;
17488;SDS011;8861;52.644;4.734;2024-02-23T04:58:14;15.13;;;2.70;;
17488;SDS011;8861;52.644;4.734;2024-02-23T05:00:41;14.53;;;2.70;;
17488;SDS011;8861;52.644;4.734;2024-02-23T05:03:08;14.40;;;3.10;;
17488;SDS011;8861;52.644;4.734;2024-02-23T05:05:35;19.13;;;3.23;;
17488;SDS011;8861;52.644;4.734;2024-02-23T05:08:03;19.03;;;3.60;;
17488;SDS011;8861;52.644;4.734;2024-02-23T05:10:29;14.00;;;2.63;;
17488;SDS011;8861;52.644;4.734;2024-02-23T05:12:58;17.07;;;2.60;;
17488;SDS011;8861;52.644;4.734;2024-02-23T05:15:25;22.27;;;2.77;;
17488;SDS011;8861;52.644;4.734;2024-02-23T05:17:52;14.87;;;2.67;;
17488;SDS011;8861;52.644;4.734;2024-02-23T05:20:18;15.60;;;2.83;;
17488;SDS011;8861;52.644;4.734;2024-02-23T05:22:45;19.80;;;4.17;;
17488;SDS011;8861;52.644;4.734;2024-02-23T05:25:13;27.50;;;6.20;;
17488;SDS011;8861;52.644;4.734;2024-02-23T05:27:40;20.33;;;6.17;;
17488;SDS011;8861;52.644;4.734;2024-02-23T05:30:09;19.50;;;6.47;;
17488;SDS011;8861;52.644;4.734;2024-02-23T05:32:36;19.77;;;5.87;;
17488;SDS011;8861;52.644;4.734;2024-02-23T05:35:04;19.97;;;5.93;;
17488;SDS011;8861;52.644;4.734;2024-02-23T05:37:32;23.17;;;4.70;;
17488;SDS011;8861;52.644;4.734;2024-02-23T05:39:59;17.17;;;4.10;;
17488;SDS011;8861;52.644;4.734;2024-02-23T05:42:29;14.60;;;3.50;;
17488;SDS011;8861;52.644;4.734;2024-02-23T05:44:56;15.23;;;3.23;;
17488;SDS011;8861;52.644;4.734;2024-02-23T05:47:25;12.43;;;2.80;;
17488;SDS011;8861;52.644;4.734;2024-02-23T05:49:51;17.53;;;3.07;;
17488;SDS011;8861;52.644;4.734;2024-02-23T05:52:18;14.03;;;2.50;;
17488;SDS011;8861;52.644;4.734;2024-02-23T05:54:45;18.30;;;2.80;;
17488;SDS011;8861;52.644;4.734;2024-02-23T05:57:12;17.03;;;2.70;;
17488;SDS011;8861;52.644;4.734;2024-02-23T05:59:39;14.47;;;2.33;;
17488;SDS011;8861;52.644;4.734;2024-02-23T06:02:06;13.13;;;2.80;;
17488;SDS011;8861;52.644;4.734;2024-02-23T06:04:35;14.23;;;2.10;;
17488;SDS011;8861;52.644;4.734;2024-02-23T06:07:01;14.30;;;2.50;;
17488;SDS011;8861;52.644;4.734;2024-02-23T06:09:29;15.03;;;2.53;;
17488;SDS011;8861;52.644;4.734;2024-02-23T06:11:56;11.67;;;2.20;;
17488;SDS011;8861;52.644;4.734;2024-02-23T06:14:23;16.00;;;2.60;;
17488;SDS011;8861;52.644;4.734;2024-02-23T06:16:50;13.10;;;2.53;;
17488;SDS011;8861;52.644;4.734;2024-02-23T06:19:17;10.27;;;2.40;;
17488;SDS011;8861;52.644;4.734;2024-02-23T06:21:48;11.50;;;2.30;;
17488;SDS011;8861;52.644;4.734;2024-02-23T06:24:15;9.23;;;2.00;;
17488;SDS011;8861;52.644;4.734;2024-02-23T06:26:43;12.83;;;2.30;;
17488;SDS011;8861;52.644;4.734;2024-02-23T06:29:10;9.00;;;2.43;;
17488;SDS011;8861;52.644;4.734;2024-02-23T06:31:38;10.90;;;2.27;;
17488;SDS011;8861;52.644;4.734;2024-02-23T06:34:06;12.37;;;2.20;;
17488;SDS011;8861;52.644;4.734;2024-02-23T06:36:33;9.70;;;2.27;;
17488;SDS011;8861;52.644;4.734;2024-02-23T06:39:02;16.87;;;3.50;;
17488;SDS011;8861;52.644;4.734;2024-02-23T06:41:29;14.70;;;3.30;;
17488;SDS011;8861;52.644;4.734;2024-02-23T06:43:56;18.67;;;3.53;;
17488;SDS011;8861;52.644;4.734;2024-02-23T06:46:23;12.33;;;3.23;;
17488;SDS011;8861;52.644;4.734;2024-02-23T06:48:50;11.30;;;3.30;;
17488;SDS011;8861;52.644;4.734;2024-02-23T06:51:17;11.33;;;3.20;;
17488;SDS011;8861;52.644;4.734;2024-02-23T06:53:45;8.23;;;2.73;;
17488;SDS011;8861;52.644;4.734;2024-02-23T06:56:16;10.33;;;3.27;;
17488;SDS011;8861;52.644;4.734;2024-02-23T06:58:43;10.03;;;3.80;;
17488;SDS011;8861;52.644;4.734;2024-02-23T07:01:10;8.30;;;4.07;;
17488;SDS011;8861;52.644;4.734;2024-02-23T07:03:38;8.80;;;4.33;;
17488;SDS011;8861;52.644;4.734;2024-02-23T07:06:05;10.20;;;4.70;;
17488;SDS011;8861;52.644;4.734;2024-02-23T07:08:34;12.60;;;5.50;;
17488;SDS011;8861;52.644;4.734;2024-02-23T07:11:01;9.10;;;5.63;;
17488;SDS011;8861;52.644;4.734;2024-02-23T07:13:30;11.77;;;5.47;;
17488;SDS011;8861;52.644;4.734;2024-02-23T07:15:57;12.53;;;6.13;;
17488;SDS011;8861;52.644;4.734;2024-02-23T07:18:26;13.30;;;6.80;;
17488;SDS011;8861;52.644;4.734;2024-02-23T07:20:53;13.20;;;7.30;;
17488;SDS011;8861;52.644;4.734;2024-02-23T07:23:20;14.30;;;7.43;;
17488;SDS011;8861;52.644;4.734;2024-02-23T07:25:48;13.07;;;7.20;;
17488;SDS011;8861;52.644;4.734;2024-02-23T07:28:15;20.83;;;7.57;;
17488;SDS011;8861;52.644;4.734;2024-02-23T07:30:46;20.87;;;8.20;;
17488;SDS011;8861;52.644;4.734;2024-02-23T07:33:13;18.17;;;8.30;;
17488;SDS011;8861;52.644;4.734;2024-02-23T07:35:40;14.33;;;7.80;;
17488;SDS011;8861;52.644;4.734;2024-02-23T07:38:07;15.90;;;8.33;;
17488;SDS011;8861;52.644;4.734;2024-02-23T07:40:34;13.83;;;8.00;;
17488;SDS011;8861;52.644;4.734;2024-02-23T07:43:01;15.53;;;8.87;;
17488;SDS011;8861;52.644;4.734;2024-02-23T07:45:29;19.17;;;8.63;;
17488;SDS011;8861;52.644;4.734;2024-02-23T07:47:57;16.07;;;9.43;;
17488;SDS011;8861;52.644;4.734;2024-02-23T07:50:24;15.23;;;9.57;;
17488;SDS011;8861;52.644;4.734;2024-02-23T07:52:51;15.00;;;9.07;;
17488;SDS011;8861;52.644;4.734;2024-02-23T07:55:18;21.10;;;10.10;;
17488;SDS011;8861;52.644;4.734;2024-02-23T07:57:45;16.97;;;11.00;;
17488;SDS011;8861;52.644;4.734;2024-02-23T08:00:12;19.23;;;10.07;;
17488;SDS011;8861;52.644;4.734;2024-02-23T08:02:40;18.77;;;10.40;;
17488;SDS011;8861;52.644;4.734;2024-02-23T08:05:11;20.80;;;10.53;;
17488;SDS011;8861;52.644;4.734;2024-02-23T08:07:38;18.67;;;10.73;;
17488;SDS011;8861;52.644;4.734;2024-02-23T08:10:05;17.83;;;10.33;;
17488;SDS011;8861;52.644;4.734;2024-02-23T08:12:32;19.23;;;11.67;;
17488;SDS011;8861;52.644;4.734;2024-02-23T08:14:59;16.77;;;10.70;;
17488;SDS011;8861;52.644;4.734;2024-02-23T08:17:26;22.33;;;12.20;;
17488;SDS011;8861;52.644;4.734;2024-02-23T08:19:53;25.97;;;12.70;;
17488;SDS011;8861;52.644;4.734;2024-02-23T08:22:21;21.60;;;11.80;;
17488;SDS011;8861;52.644;4.734;2024-02-23T08:24:49;21.67;;;12.17;;
17488;SDS011;8861;52.644;4.734;2024-02-23T08:27:16;21.87;;;11.87;;
17488;SDS011;8861;52.644;4.734;2024-02-23T08:29:43;22.33;;;11.40;;
17488;SDS011;8861;52.644;4.734;2024-02-23T08:32:10;21.13;;;11.47;;
17488;SDS011;8861;52.644;4.734;2024-02-23T08:34:50;17.20;;;9.60;;
17488;SDS011;8861;52.644;4.734;2024-02-23T08:37:25;12.23;;;6.60;;
17488;SDS011;8861;52.644;4.734;2024-02-23T08:39:52;10.03;;;5.00;;
17488;SDS011;8861;52.644;4.734;2024-02-23T08:42:19;7.60;;;4.33;;
17488;SDS011;8861;52.644;4.734;2024-02-23T08:44:46;7.07;;;4.40;;
17488;SDS011;8861;52.644;4.734;2024-02-23T08:47:13;7.00;;;4.60;;
17488;SDS011;8861;52.644;4.734;2024-02-23T08:49:41;7.20;;;4.93;;
17488;SDS011;8861;52.644;4.734;2024-02-23T08:52:08;8.93;;;5.33;;
17488;SDS011;8861;52.644;4.734;2024-02-23T08:54:36;9.83;;;5.67;;
17488;SDS011;8861;52.644;4.734;2024-02-23T08:57:04;11.63;;;6.57;;
17488;SDS011;8861;52.644;4.734;2024-02-23T08:59:31;11.60;;;6.03;;
17488;SDS011;8861;52.644;4.734;2024-02-23T09:01:58;10.43;;;6.47;;
17488;SDS011;8861;52.644;4.734;2024-02-23T09:04:25;15.67;;;8.17;;
17488;SDS011;8861;52.644;4.734;2024-02-23T09:06:53;12.93;;;7.73;;
17488;SDS011;8861;52.644;4.734;2024-02-23T09:09:19;13.87;;;8.10;;
17488;SDS011;8861;52.644;4.734;2024-02-23T09:11:48;13.07;;;8.03;;
17488;SDS011;8861;52.644;4.734;2024-02-23T09:14:15;14.87;;;8.00;;
17488;SDS011;8861;52.644;4.734;2024-02-23T09:16:42;14.53;;;7.67;;
17488;SDS011;8861;52.644;4.734;2024-02-23T09:19:09;15.03;;;8.13;;
17488;SDS011;8861;52.644;4.734;2024-02-23T09:21:37;11.77;;;7.63;;
17488;SDS011;8861;52.644;4.734;2024-02-23T09:24:04;13.50;;;7.97;;
17488;SDS011;8861;52.644;4.734;2024-02-23T09:26:32;15.30;;;7.20;;
17488;SDS011;8861;52.644;4.734;2024-02-23T09:29:00;13.03;;;7.70;;
17488;SDS011;8861;52.644;4.734;2024-02-23T09:31:27;15.00;;;8.50;;
17488;SDS011;8861;52.644;4.734;2024-02-23T09:33:55;11.97;;;7.27;;
17488;SDS011;8861;52.644;4.734;2024-02-23T09:36:22;14.70;;;7.60;;
17488;SDS011;8861;52.644;4.734;2024-02-23T09:38:49;13.57;;;7.87;;
17488;SDS011;8861;52.644;4.734;2024-02-23T09:41:18;17.50;;;8.87;;
17488;SDS011;8861;52.644;4.734;2024-02-23T09:43:47;14.50;;;8.30;;
17488;SDS011;8861;52.644;4.734;2024-02-23T09:46:16;12.33;;;8.00;;
17488;SDS011;8861;52.644;4.734;2024-02-23T09:48:44;12.77;;;8.20;;
17488;SDS011;8861;52.644;4.734;2024-02-23T09:51:12;14.67;;;8.80;;
17488;SDS011;8861;52.644;4.734;2024-02-23T09:53:42;13.30;;;8.37;;
17488;SDS011;8861;52.644;4.734;2024-02-23T09:56:10;14.97;;;8.07;;
17488;SDS011;8861;52.644;4.734;2024-02-23T09:58:37;17.87;;;8.70;;
17488;SDS011;8861;52.644;4.734;2024-02-23T10:01:07;12.03;;;6.90;;
17488;SDS011;8861;52.644;4.734;2024-02-23T10:03:38;14.90;;;7.70;;
17488;SDS011;8861;52.644;4.734;2024-02-23T10:06:05;16.93;;;7.20;;
17488;SDS011;8861;52.644;4.734;2024-02-23T10:08:32;13.93;;;7.80;;
17488;SDS011;8861;52.644;4.734;2024-02-23T10:11:00;12.90;;;6.47;;
17488;SDS011;8861;52.644;4.734;2024-02-23T10:13:29;16.90;;;7.20;;
17488;SDS011;8861;52.644;4.734;2024-02-23T10:15:56;13.60;;;6.27;;
17488;SDS011;8861;52.644;4.734;2024-02-23T10:18:23;10.93;;;6.63;;
17488;SDS011;8861;52.644;4.734;2024-02-23T10:20:51;13.43;;;6.97;;
17488;SDS011;8861;52.644;4.734;2024-02-23T10:23:18;12.00;;;5.77;;
17488;SDS011;8861;52.644;4.734;2024-02-23T10:25:46;15.63;;;6.90;;
17488;SDS011;8861;52.644;4.734;2024-02-23T10:28:14;15.37;;;6.83;;
17488;SDS011;8861;52.644;4.734;2024-02-23T10:30:41;11.07;;;6.20;;
17488;SDS011;8861;52.644;4.734;2024-02-23T10:33:08;14.63;;;6.10;;
17488;SDS011;8861;52.644;4.734;2024-02-23T10:35:39;16.33;;;6.43;;
17488;SDS011;8861;52.644;4.734;2024-02-23T10:38:09;21.37;;;7.17;;
17488;SDS011;8861;52.644;4.734;2024-02-23T10:40:38;18.37;;;6.53;;
17488;SDS011;8861;52.644;4.734;2024-02-23T10:43:07;20.30;;;6.40;;
17488;SDS011;8861;52.644;4.734;2024-02-23T10:45:38;16.83;;;6.00;;
17488;SDS011;8861;52.644;4.734;2024-02-23T10:48:06;16.67;;;5.77;;
17488;SDS011;8861;52.644;4.734;2024-02-23T10:50:34;14.37;;;5.53;;
17488;SDS011;8861;52.644;4.734;2024-02-23T10:53:02;19.67;;;5.80;;
17488;SDS011;8861;52.644;4.734;2024-02-23T10:55:35;16.67;;;4.80;;
17488;SDS011;8861;52.644;4.734;2024-02-23T10:58:04;19.10;;;5.57;;
17488;SDS011;8861;52.644;4.734;2024-02-23T11:00:36;16.63;;;4.97;;
17488;SDS011;8861;52.644;4.734;2024-02-23T11:03:03;15.97;;;5.00;;
17488;SDS011;8861;52.644;4.734;2024-02-23T11:05:32;18.07;;;5.10;;
17488;SDS011;8861;52.644;4.734;2024-02-23T11:08:00;15.80;;;4.53;;
17488;SDS011;8861;52.644;4.734;2024-02-23T11:10:27;20.93;;;4.90;;
17488;SDS011;8861;52.644;4.734;2024-02-23T11:12:58;20.90;;;4.67;;
17488;SDS011;8861;52.644;4.734;2024-02-23T11:15:26;20.13;;;4.83;;
17488;SDS011;8861;52.644;4.734;2024-02-23T11:17:54;19.43;;;4.50;;
17488;SDS011;8861;52.644;4.734;2024-02-23T11:20:21;15.37;;;4.50;;
17488;SDS011;8861;52.644;4.734;2024-02-23T11:22:51;19.33;;;4.60;;
17488;SDS011;8861;52.644;4.734;2024-02-23T11:25:19;18.97;;;4.93;;
17488;SDS011;8861;52.644;4.734;2024-02-23T11:27:48;25.33;;;5.57;;
17488;SDS011;8861;52.644;4.734;2024-02-23T11:30:17;20.40;;;5.20;;
17488;SDS011;8861;52.644;4.734;2024-02-23T11:32:45;19.43;;;4.80;;
17488;SDS011;8861;52.644;4.734;2024-02-23T11:35:13;16.67;;;4.70;;
17488;SDS011;8861;52.644;4.734;2024-02-23T11:37:45;14.77;;;4.00;;
17488;SDS011;8861;52.644;4.734;2024-02-23T11:40:13;21.30;;;3.93;;
17488;SDS011;8861;52.644;4.734;2024-02-23T11:42:40;23.40;;;4.30;;
17488;SDS011;8861;52.644;4.734;2024-02-23T11:45:08;16.77;;;3.73;;
17488;SDS011;8861;52.644;4.734;2024-02-23T11:47:37;26.27;;;4.70;;
17488;SDS011;8861;52.644;4.734;2024-02-23T11:50:07;22.20;;;4.40;;
17488;SDS011;8861;52.644;4.734;2024-02-23T11:52:35;17.73;;;3.40;;
17488;SDS011;8861;52.644;4.734;2024-02-23T11:55:03;24.50;;;4.67;;
17488;SDS011;8861;52.644;4.734;2024-02-23T11:57:33;20.53;;;4.00;;
17488;SDS011;8861;52.644;4.734;2024-02-23T12:00:03;22.57;;;3.63;;
17488;SDS011;8861;52.644;4.734;2024-02-23T12:02:32;23.13;;;3.93;;
17488;SDS011;8861;52.644;4.734;2024-02-23T12:05:00;23.33;;;4.33;;
17488;SDS011;8861;52.644;4.734;2024-02-23T12:07:28;18.17;;;4.67;;
17488;SDS011;8861;52.644;4.734;2024-02-23T12:09:55;17.60;;;4.00;;
17488;SDS011;8861;52.644;4.734;2024-02-23T12:12:25;17.03;;;3.47;;
17488;SDS011;8861;52.644;4.734;2024-02-23T12:14:52;9.47;;;2.70;;
17488;SDS011;8861;52.644;4.734;2024-02-23T12:17:19;9.27;;;2.30;;
17488;SDS011;8861;52.644;4.734;2024-02-23T12:19:46;11.83;;;2.47;;
17488;SDS011;8861;52.644;4.734;2024-02-23T12:22:15;14.23;;;2.37;;
17488;SDS011;8861;52.644;4.734;2024-02-23T12:24:43;14.73;;;2.87;;
17488;SDS011;8861;52.644;4.734;2024-02-23T12:27:12;15.83;;;2.90;;
17488;SDS011;8861;52.644;4.734;2024-02-23T12:29:50;14.87;;;2.97;;
17488;SDS011;8861;52.644;4.734;2024-02-23T12:32:19;9.73;;;2.20;;
17488;SDS011;8861;52.644;4.734;2024-02-23T12:34:46;8.20;;;2.20;;
17488;SDS011;8861;52.644;4.734;2024-02-23T12:37:15;11.90;;;2.33;;
17488;SDS011;8861;52.644;4.734;2024-02-23T12:39:42;14.57;;;2.70;;
17488;SDS011;8861;52.644;4.734;2024-02-23T12:42:09;10.23;;;2.80;;
17488;SDS011;8861;52.644;4.734;2024-02-23T12:44:37;18.37;;;3.67;;
17488;SDS011;8861;52.644;4.734;2024-02-23T12:47:03;15.27;;;3.23;;
17488;SDS011;8861;52.644;4.734;2024-02-23T12:49:31;15.07;;;3.13;;
17488;SDS011;8861;52.644;4.734;2024-02-23T12:51:57;13.93;;;3.60;;
17488;SDS011;8861;52.644;4.734;2024-02-23T12:54:26;14.60;;;3.53;;
17488;SDS011;8861;52.644;4.734;2024-02-23T12:56:53;16.37;;;3.47;;
17488;SDS011;8861;52.644;4.734;2024-02-23T12:59:20;24.20;;;4.60;;
17488;SDS011;8861;52.644;4.734;2024-02-23T13:01:47;16.30;;;4.77;;
17488;SDS011;8861;52.644;4.734;2024-02-23T13:04:14;22.33;;;4.30;;
17488;SDS011;8861;52.644;4.734;2024-02-23T13:06:41;22.40;;;5.03;;
17488;SDS011;8861;52.644;4.734;2024-02-23T13:09:08;25.37;;;4.93;;
17488;SDS011;8861;52.644;4.734;2024-02-23T13:11:38;18.07;;;5.03;;
17488;SDS011;8861;52.644;4.734;2024-02-23T13:14:05;21.77;;;4.93;;
17488;SDS011;8861;52.644;4.734;2024-02-23T13:16:32;22.57;;;4.73;;
17488;SDS011;8861;52.644;4.734;2024-02-23T13:18:59;15.97;;;4.20;;
17488;SDS011;8861;52.644;4.734;2024-02-23T13:21:26;24.97;;;4.47;;
17488;SDS011;8861;52.644;4.734;2024-02-23T13:23:54;16.93;;;4.17;;
17488;SDS011;8861;52.644;4.734;2024-02-23T13:26:21;22.67;;;4.10;;
17488;SDS011;8861;52.644;4.734;2024-02-23T13:28:49;15.10;;;3.50;;
17488;SDS011;8861;52.644;4.734;2024-02-23T13:31:16;21.33;;;4.60;;
17488;SDS011;8861;52.644;4.734;2024-02-23T13:33:43;20.20;;;3.90;;
17488;SDS011;8861;52.644;4.734;2024-02-23T13:36:10;14.83;;;3.50;;
17488;SDS011;8861;52.644;4.734;2024-02-23T13:38:38;19.20;;;4.10;;
17488;SDS011;8861;52.644;4.734;2024-02-23T13:41:06;19.77;;;3.90;;
17488;SDS011;8861;52.644;4.734;2024-02-23T13:43:33;16.47;;;3.63;;
17488;SDS011;8861;52.644;4.734;2024-02-23T13:46:02;17.60;;;3.73;;
17488;SDS011;8861;52.644;4.734;2024-02-23T13:48:29;18.03;;;3.50;;
17488;SDS011;8861;52.644;4.734;2024-02-23T13:50:56;15.07;;;3.93;;
17488;SDS011;8861;52.644;4.734;2024-02-23T13:53:28;23.07;;;4.00;;
17488;SDS011;8861;52.644;4.734;2024-02-23T13:55:55;19.57;;;3.70;;
17488;SDS011;8861;52.644;4.734;2024-02-23T13:58:22;14.37;;;3.50;;
17488;SDS011;8861;52.644;4.734;2024-02-23T14:00:49;13.27;;;3.70;;
17488;SDS011;8861;52.644;4.734;2024-02-23T14:03:18;21.93;;;3.20;;
17488;SDS011;8861;52.644;4.734;2024-02-23T14:05:46;15.23;;;3.00;;
17488;SDS011;8861;52.644;4.734;2024-02-23T14:08:13;19.70;;;3.33;;
17488;SDS011;8861;52.644;4.734;2024-02-23T14:10:40;18.83;;;2.77;;
17488;SDS011;8861;52.644;4.734;2024-02-23T14:13:08;13.67;;;2.50;;
17488;SDS011;8861;52.644;4.734;2024-02-23T14:15:39;13.10;;;2.77;;
17488;SDS011;8861;52.644;4.734;2024-02-23T14:18:06;12.77;;;2.73;;
17488;SDS011;8861;52.644;4.734;2024-02-23T14:20:34;17.87;;;2.77;;
17488;SDS011;8861;52.644;4.734;2024-02-23T14:23:04;16.93;;;3.07;;
17488;SDS011;8861;52.644;4.734;2024-02-23T14:25:31;18.17;;;3.43;;
17488;SDS011;8861;52.644;4.734;2024-02-23T14:27:58;9.40;;;2.87;;
17488;SDS011;8861;52.644;4.734;2024-02-23T14:30:24;21.73;;;3.00;;
17488;SDS011;8861;52.644;4.734;2024-02-23T14:32:51;13.17;;;2.97;;
17488;SDS011;8861;52.644;4.734;2024-02-23T14:35:20;14.37;;;3.10;;
17488;SDS011;8861;52.644;4.734;2024-02-23T14:37:48;17.50;;;3.00;;
17488;SDS011;8861;52.644;4.734;2024-02-23T14:40:16;11.53;;;2.77;;
17488;SDS011;8861;52.644;4.734;2024-02-23T14:42:43;18.40;;;3.00;;
17488;SDS011;8861;52.644;4.734;2024-02-23T14:45:10;20.70;;;3.40;;
17488;SDS011;8861;52.644;4.734;2024-02-23T14:47:38;12.90;;;2.80;;
17488;SDS011;8861;52.644;4.734;2024-02-23T14:50:06;13.40;;;2.80;;